Time;durP1;ratioP1;P1;durP2;ratioP2;P2;SDS_P1;SDS_P2;PMS_P1;PMS_P2;Temp;Humidity;BMP_temperature;BMP_pressure;BME280_temperature;BME280_humidity;BME280_pressure;Samples;Min_cycle;Max_cycle;Signal;HPM_P1;HPM_P2
2023/01/29 00:01:08;;;;;;;;;;;2.10;1.00;;;;;;5033400;28;19963;-76
2023/01/29 00:07:14;;;;;;;;;;;2.00;1.00;;;;;;5033942;28;20427;-87
2023/01/29 00:09:44;;;;;;;;;;;2.00;1.00;;;;;;5002852;28;19917;-87
2023/01/29 00:15:26;;;;;;;;;;;2.00;1.00;;;;;;5017540;28;19929;-87
2023/01/29 00:18:14;;;;;;;;;;;2.00;1.00;;;;;;5032003;28;20327;-87
2023/01/29 00:20:44;;;;;;;;;;;2.00;1.00;;;;;;5035961;28;19913;-75
2023/01/29 00:23:10;;;;;;;;;;;2.10;1.00;;;;;;5035938;28;20418;-75
2023/01/29 00:25:35;;;;;;;;;;;2.00;1.00;;;;;;5036831;28;19959;-76
2023/01/29 00:28:01;;;;;;;;;;;2.10;1.00;;;;;;5036573;28;20347;-75
2023/01/29 00:30:38;;;;;;;;;;;2.00;1.00;;;;;;5036487;28;20260;-75
2023/01/29 00:33:10;;;;;;;;;;;2.00;1.00;;;;;;5031654;28;20004;-75
2023/01/29 00:35:38;;;;;;;;;;;2.10;1.00;;;;;;5033853;28;19917;-75
2023/01/29 00:38:03;;;;;;;;;;;2.10;1.00;;;;;;5036410;28;19909;-76
2023/01/29 00:44:56;;;;;;;;;;;2.10;1.00;;;;;;5031130;28;19925;-76
2023/01/29 00:46:05;;;;;;;;;;;2.10;1.00;;;;;;5027829;28;19924;-76
2023/01/29 00:48:31;;;;;;;;;;;2.10;1.00;;;;;;5036536;28;19909;-76
2023/01/29 00:50:56;;;;;;;;;;;2.10;1.00;;;;;;5035836;28;19913;-75
2023/01/29 00:53:27;;;;;;;;;;;2.00;1.00;;;;;;5035959;28;19916;-75
2023/01/29 00:55:56;;;;;;;;;;;2.10;1.00;;;;;;5018429;28;19916;-75
2023/01/29 00:58:32;;;;;;;;;;;2.00;1.00;;;;;;5035808;28;19910;-75
2023/01/29 01:01:01;;;;;;;;;;;2.00;1.00;;;;;;5034377;28;20382;-75
2023/01/29 01:03:34;;;;;;;;;;;2.00;1.00;;;;;;5036098;28;19909;-77
2023/01/29 01:06:20;;;;;;;;;;;2.00;1.00;;;;;;5035938;28;20356;-76
2023/01/29 01:11:34;;;;;;;;;;;2.00;1.00;;;;;;5035561;28;19924;-76
2023/01/29 01:14:26;;;;;;;;;;;2.00;1.00;;;;;;5035822;28;19909;-75
2023/01/29 01:16:52;;;;;;;;;;;1.90;1.00;;;;;;5035508;28;20301;-75
2023/01/29 01:19:17;;;;;;;;;;;1.90;1.00;;;;;;5036247;28;19993;-76
2023/01/29 01:21:45;;;;;;;;;;;1.90;1.00;;;;;;5034950;28;20291;-75
2023/01/29 01:24:14;;;;;;;;;;;1.90;1.00;;;;;;5035492;28;19957;-75
2023/01/29 01:26:50;;;;;;;;;;;1.90;1.00;;;;;;5035289;28;19921;-75
2023/01/29 01:29:16;;;;;;;;;;;1.90;1.00;;;;;;5026491;28;19956;-75
2023/01/29 01:31:44;;;;;;;;;;;1.80;1.00;;;;;;5016320;28;19994;-75
2023/01/29 01:34:10;;;;;;;;;;;1.80;1.00;;;;;;4998151;28;19920;-75
2023/01/29 01:36:35;;;;;;;;;;;1.80;1.00;;;;;;5015441;28;19913;-75
2023/01/29 01:39:02;;;;;;;;;;;1.80;1.00;;;;;;5035348;28;20007;-76
2023/01/29 01:41:29;;;;;;;;;;;1.70;1.00;;;;;;5016872;28;19913;-76
2023/01/29 01:43:57;;;;;;;;;;;1.70;1.00;;;;;;5017478;28;19917;-75
2023/01/29 01:46:35;;;;;;;;;;;1.70;1.00;;;;;;5035028;28;19999;-75
2023/01/29 01:52:05;;;;;;;;;;;1.60;1.00;;;;;;5026358;28;20380;-87
2023/01/29 01:57:56;;;;;;;;;;;1.60;1.00;;;;;;5031831;28;19943;-87
2023/01/29 02:00:32;;;;;;;;;;;1.50;1.00;;;;;;5003635;28;19913;-87
2023/01/29 02:17:59;;;;;;;;;;;1.10;1.00;;;;;;5031512;28;19928;-87
2023/01/29 02:20:50;;;;;;;;;;;1.10;1.00;;;;;;5014748;28;20004;-87
2023/01/29 02:23:32;;;;;;;;;;;1.10;1.00;;;;;;5017428;28;19963;-87
2023/01/29 02:26:32;;;;;;;;;;;1.00;1.00;;;;;;5012743;28;20241;-75
2023/01/29 02:29:26;;;;;;;;;;;0.90;1.00;;;;;;5032470;28;19917;-75
2023/01/29 02:32:20;;;;;;;;;;;0.90;1.00;;;;;;5024574;28;19913;-76
2023/01/29 02:38:20;;;;;;;;;;;0.80;1.00;;;;;;5035050;28;19971;-87
2023/01/29 02:40:53;;;;;;;;;;;0.70;1.00;;;;;;5031783;28;20016;-87
2023/01/29 02:43:34;;;;;;;;;;;0.70;1.00;;;;;;5017335;28;19958;-87
2023/01/29 02:46:02;;;;;;;;;;;0.70;1.00;;;;;;5034868;28;20471;-87
2023/01/29 02:54:56;;;;;;;;;;;0.70;1.00;;;;;;5024405;28;20303;-75
2023/01/29 02:57:24;;;;;;;;;;;0.80;1.00;;;;;;5034237;28;19919;-75
2023/01/29 03:00:02;;;;;;;;;;;0.80;1.00;;;;;;5022724;28;19913;-75
2023/01/29 03:02:31;;;;;;;;;;;0.80;1.00;;;;;;5032011;28;19913;-75
2023/01/29 03:05:12;;;;;;;;;;;0.80;1.00;;;;;;5026810;28;19910;-87
2023/01/29 03:07:50;;;;;;;;;;;0.80;1.00;;;;;;5034561;28;19909;-87
2023/01/29 03:13:52;;;;;;;;;;;0.90;1.00;;;;;;5034400;28;19992;-87
2023/01/29 03:19:44;;;;;;;;;;;0.90;1.00;;;;;;4943065;29;19961;-87
2023/01/29 03:22:22;;;;;;;;;;;0.90;1.00;;;;;;4954627;28;19930;-87
2023/01/29 03:33:41;;;;;;;;;;;1.00;1.00;;;;;;4948252;29;19922;-87
2023/01/29 03:51:29;;;;;;;;;;;0.90;1.00;;;;;;4968661;28;19956;-75
2023/01/29 03:54:09;;;;;;;;;;;0.90;1.00;;;;;;5031056;28;21662;-75
2023/01/29 03:56:50;;;;;;;;;;;0.90;1.00;;;;;;5037746;28;19916;-75
2023/01/29 03:59:29;;;;;;;;;;;0.80;1.00;;;;;;5037206;28;19964;-75
2023/01/29 04:01:59;;;;;;;;;;;0.70;1.00;;;;;;5026902;28;20000;-75
2023/01/29 04:04:35;;;;;;;;;;;0.70;1.00;;;;;;5037312;28;20007;-75
2023/01/29 04:16:24;;;;;;;;;;;0.50;1.00;;;;;;5037476;28;20048;-87
2023/01/29 04:25:01;;;;;;;;;;;0.30;1.00;;;;;;5036816;28;19917;-87
2023/01/29 04:36:38;;;;;;;;;;;-0.10;1.00;;;;;;5026872;28;19967;-87
2023/01/29 04:48:21;;;;;;;;;;;-0.40;1.00;;;;;;5037084;28;19916;-87
2023/01/29 04:54:10;;;;;;;;;;;-0.40;1.00;;;;;;5031430;28;20430;-87
2023/01/29 04:59:41;;;;;;;;;;;-0.40;1.00;;;;;;5025413;28;19923;-87
2023/01/29 05:05:44;;;;;;;;;;;-0.40;1.00;;;;;;5035088;28;19957;-87
2023/01/29 05:08:12;;;;;;;;;;;-0.40;1.00;;;;;;5036641;28;19913;-87
2023/01/29 05:11:08;;;;;;;;;;;-0.40;1.00;;;;;;5018761;28;20280;-87
2023/01/29 05:19:45;;;;;;;;;;;-0.50;1.00;;;;;;5035698;28;19919;-87
2023/01/29 05:22:26;;;;;;;;;;;-0.60;1.00;;;;;;5036535;28;19928;-87
2023/01/29 05:28:15;;;;;;;;;;;-0.60;1.00;;;;;;5035973;28;19958;-87
2023/01/29 05:34:02;;;;;;;;;;;-0.70;1.00;;;;;;5033865;28;19920;-87
2023/01/29 05:36:32;;;;;;;;;;;-0.60;1.00;;;;;;5006441;28;19927;-87
2023/01/29 05:39:15;;;;;;;;;;;-0.60;1.00;;;;;;5022583;28;19918;-87
2023/01/29 05:42:14;;;;;;;;;;;-0.70;1.00;;;;;;5025312;28;20273;-87
2023/01/29 05:44:50;;;;;;;;;;;-0.70;1.00;;;;;;5017697;28;19932;-87
2023/01/29 05:47:20;;;;;;;;;;;-0.70;1.00;;;;;;5017531;28;19998;-87
2023/01/29 05:49:50;;;;;;;;;;;-0.70;1.00;;;;;;5006214;28;19967;-87
2023/01/29 05:52:16;;;;;;;;;;;-0.70;1.00;;;;;;5017790;28;19910;-75
2023/01/29 05:54:42;;;;;;;;;;;-0.70;1.00;;;;;;5023912;28;19914;-75
2023/01/29 05:57:07;;;;;;;;;;;-0.70;1.00;;;;;;5032456;28;19920;-75
2023/01/29 05:59:38;;;;;;;;;;;-0.70;1.00;;;;;;5034993;28;19909;-75
2023/01/29 06:02:14;;;;;;;;;;;-0.70;1.00;;;;;;5034818;28;19959;-75
2023/01/29 06:04:40;;;;;;;;;;;-0.70;1.00;;;;;;5033367;28;19913;-75
2023/01/29 06:07:05;;;;;;;;;;;-0.70;1.00;;;;;;5035353;28;19931;-75
2023/01/29 06:09:38;;;;;;;;;;;-0.80;1.00;;;;;;5033606;28;19936;-75
2023/01/29 06:12:14;;;;;;;;;;;-0.70;1.00;;;;;;5017377;28;19948;-81
2023/01/29 06:14:44;;;;;;;;;;;-0.70;1.00;;;;;;5034739;28;19920;-81
2023/01/29 06:17:20;;;;;;;;;;;-0.60;1.00;;;;;;5016461;28;19917;-81
2023/01/29 06:23:20;;;;;;;;;;;-0.50;1.00;;;;;;5029154;28;19963;-79
2023/01/29 06:26:16;;;;;;;;;;;-0.50;1.00;;;;;;5012066;28;19915;-79
2023/01/29 06:28:44;;;;;;;;;;;-0.40;1.00;;;;;;4953683;29;19962;-79
2023/01/29 06:31:14;;;;;;;;;;;-0.40;1.00;;;;;;4954554;29;20012;-79
2023/01/29 06:33:44;;;;;;;;;;;-0.40;1.00;;;;;;4940741;29;20009;-79
2023/01/29 06:36:10;;;;;;;;;;;-0.30;1.00;;;;;;4954329;29;19919;-80
2023/01/29 06:38:38;;;;;;;;;;;-0.40;1.00;;;;;;4953958;29;19922;-81
2023/01/29 06:41:11;;;;;;;;;;;-0.30;1.00;;;;;;4954300;29;19910;-82
2023/01/29 06:43:37;;;;;;;;;;;-0.40;1.00;;;;;;4953978;29;20394;-81
2023/01/29 06:46:08;;;;;;;;;;;-0.30;1.00;;;;;;4938200;29;19915;-81
2023/01/29 06:48:38;;;;;;;;;;;-0.30;1.00;;;;;;4953833;29;19958;-81
2023/01/29 06:51:09;;;;;;;;;;;-0.30;1.00;;;;;;4953730;28;19961;-81
2023/01/29 06:56:50;;;;;;;;;;;-0.30;1.00;;;;;;4950377;29;20626;-79
2023/01/29 06:59:20;;;;;;;;;;;-0.30;1.00;;;;;;4937368;29;20259;-79
2023/01/29 07:01:50;;;;;;;;;;;-0.20;1.00;;;;;;4953899;29;19911;-79
2023/01/29 07:04:20;;;;;;;;;;;-0.10;1.00;;;;;;4950280;28;19956;-79
2023/01/29 07:06:58;;;;;;;;;;;-0.10;1.00;;;;;;5028082;28;19920;-79
2023/01/29 07:09:39;;;;;;;;;;;0.00;1.00;;;;;;5030770;28;19913;-77
2023/01/29 07:12:14;;;;;;;;;;;-0.10;1.00;;;;;;5031027;28;19909;-75
2023/01/29 07:14:40;;;;;;;;;;;-0.10;1.00;;;;;;5032206;28;19917;-72
2023/01/29 07:17:06;;;;;;;;;;;0.00;1.00;;;;;;5024685;28;19917;-74
2023/01/29 07:19:31;;;;;;;;;;;0.00;1.00;;;;;;5029451;28;19913;-74
2023/01/29 07:22:01;;;;;;;;;;;0.00;1.00;;;;;;5009640;28;19913;-76
2023/01/29 07:24:44;;;;;;;;;;;0.00;1.00;;;;;;5032017;28;19913;-86
2023/01/29 07:33:38;;;;;;;;;;;0.20;1.00;;;;;;5029508;28;20383;-86
2023/01/29 07:36:09;;;;;;;;;;;0.20;1.00;;;;;;5020593;28;20272;-86
2023/01/29 07:41:38;;;;;;;;;;;0.10;1.00;;;;;;5037544;28;19963;-78
2023/01/29 07:44:14;;;;;;;;;;;0.20;1.00;;;;;;5023047;28;19913;-78
2023/01/29 07:46:40;;;;;;;;;;;0.20;1.00;;;;;;5037491;28;20002;-78
2023/01/29 07:49:26;;;;;;;;;;;0.30;1.00;;;;;;5019758;28;20058;-78
2023/01/29 07:52:02;;;;;;;;;;;0.40;1.00;;;;;;5019687;28;19916;-77
2023/01/29 07:54:38;;;;;;;;;;;0.50;1.00;;;;;;5025830;28;19909;-77
2023/01/29 07:57:04;;;;;;;;;;;0.50;1.00;;;;;;5023928;28;19913;-77
2023/01/29 07:59:32;;;;;;;;;;;0.60;1.00;;;;;;5036362;28;19972;-77
2023/01/29 08:01:58;;;;;;;;;;;0.60;1.00;;;;;;5026600;28;19920;-78
2023/01/29 08:04:32;;;;;;;;;;;0.70;1.00;;;;;;5031686;28;19913;-77
2023/01/29 08:06:58;;;;;;;;;;;0.70;1.00;;;;;;5028923;28;19928;-78
2023/01/29 08:09:24;;;;;;;;;;;0.80;1.00;;;;;;5025273;28;20308;-77
2023/01/29 08:14:52;;;;;;;;;;;1.00;1.00;;;;;;5035696;28;19909;-77
2023/01/29 08:17:20;;;;;;;;;;;1.10;1.00;;;;;;5036869;28;19913;-77
2023/01/29 08:19:46;;;;;;;;;;;1.20;1.00;;;;;;5016393;28;19921;-79
2023/01/29 08:22:15;;;;;;;;;;;1.30;1.00;;;;;;5024015;28;19932;-77
2023/01/29 08:24:44;;;;;;;;;;;1.40;1.00;;;;;;5023822;28;19913;-77
2023/01/29 08:27:10;;;;;;;;;;;1.50;1.00;;;;;;5026841;28;19925;-77
2023/01/29 08:29:38;;;;;;;;;;;1.60;1.00;;;;;;5036776;28;19917;-77
2023/01/29 08:32:38;;;;;;;;;;;1.70;1.00;;;;;;5029778;28;20382;-77
2023/01/29 08:35:08;;;;;;;;;;;1.80;1.00;;;;;;5036664;28;19913;-80
2023/01/29 08:38:02;;;;;;;;;;;2.00;1.00;;;;;;5018527;28;19909;-80
2023/01/29 08:40:33;;;;;;;;;;;2.10;1.00;;;;;;5036357;28;19940;-80
2023/01/29 08:43:08;;;;;;;;;;;2.20;1.00;;;;;;5024128;28;19936;-80
2023/01/29 08:46:02;;;;;;;;;;;2.30;1.00;;;;;;4999166;28;20323;-80
2023/01/29 08:48:38;;;;;;;;;;;2.30;1.00;;;;;;5035846;28;19913;-78
2023/01/29 08:51:04;;;;;;;;;;;2.40;1.00;;;;;;5036630;28;19909;-77
2023/01/29 09:02:50;;;;;;;;;;;2.60;1.00;;;;;;5032305;28;19928;-88
2023/01/29 09:08:27;;;;;;;;;;;2.20;1.00;;;;;;5036638;28;20010;-78
2023/01/29 09:11:14;;;;;;;;;;;2.20;1.00;;;;;;5035815;28;19916;-77
2023/01/29 09:13:44;;;;;;;;;;;2.30;1.00;;;;;;5029023;28;19913;-77
2023/01/29 09:16:26;;;;;;;;;;;2.20;1.00;;;;;;5016091;28;19925;-78
2023/01/29 09:18:53;;;;;;;;;;;2.20;1.00;;;;;;5010053;28;19921;-77
2023/01/29 09:21:32;;;;;;;;;;;2.10;1.00;;;;;;5027009;28;19971;-78
2023/01/29 09:23:58;;;;;;;;;;;2.10;1.00;;;;;;5017369;28;19920;-78
2023/01/29 09:26:26;;;;;;;;;;;2.30;1.00;;;;;;5034786;28;19913;-77
2023/01/29 09:29:20;;;;;;;;;;;2.40;1.00;;;;;;5034725;28;20000;-79
2023/01/29 09:31:56;;;;;;;;;;;2.40;1.00;;;;;;5020186;28;19917;-77
2023/01/29 09:34:33;;;;;;;;;;;2.50;1.00;;;;;;5023261;28;19963;-77
2023/01/29 09:37:16;;;;;;;;;;;2.50;1.00;;;;;;5034733;28;20016;-78
2023/01/29 09:39:51;;;;;;;;;;;2.40;1.00;;;;;;5031332;28;19938;-87
2023/01/29 09:42:29;;;;;;;;;;;2.50;1.00;;;;;;5022412;28;20249;-88
2023/01/29 09:57:44;;;;;;;;;;;2.20;1.00;;;;;;5024228;28;19927;-88
2023/01/29 10:00:14;;;;;;;;;;;2.40;1.00;;;;;;5035888;28;19921;-88
2023/01/29 10:03:05;;;;;;;;;;;2.40;1.00;;;;;;5010433;28;20292;-87
2023/01/29 10:08:44;;;;;;;;;;;2.30;1.00;;;;;;5018980;28;19920;-88
2023/01/29 10:11:38;;;;;;;;;;;2.30;1.00;;;;;;5018402;28;19962;-84
2023/01/29 10:14:36;;;;;;;;;;;2.30;1.00;;;;;;5017116;28;19959;-83
2023/01/29 10:17:14;;;;;;;;;;;2.40;1.00;;;;;;4943707;29;19919;-82
2023/01/29 10:20:11;;;;;;;;;;;2.60;1.00;;;;;;4935510;29;19910;-78
2023/01/29 10:22:38;;;;;;;;;;;2.80;1.00;;;;;;4859904;29;20383;-78
2023/01/29 10:25:07;;;;;;;;;;;2.90;1.00;;;;;;4862287;29;19912;-77
2023/01/29 10:28:02;;;;;;;;;;;2.60;1.00;;;;;;4860331;29;20407;-77
2023/01/29 10:34:00;;;;;;;;;;;2.20;1.00;;;;;;4859706;29;20032;-77
2023/01/29 10:36:41;;;;;;;;;;;2.30;1.00;;;;;;4805251;29;19929;-78
2023/01/29 10:48:53;;;;;;;;;;;2.10;1.00;;;;;;4823972;29;20030;-87
2023/01/29 10:51:37;;;;;;;;;;;2.20;1.00;;;;;;4805788;29;20263;-87
2023/01/29 10:54:09;;;;;;;;;;;2.40;1.00;;;;;;4833043;29;19912;-79
2023/01/29 10:56:44;;;;;;;;;;;2.50;1.00;;;;;;4836524;29;19916;-77
2023/01/29 10:59:20;;;;;;;;;;;2.60;1.00;;;;;;4871267;29;19911;-87
2023/01/29 11:02:11;;;;;;;;;;;2.50;1.00;;;;;;4908255;29;20006;-88
2023/01/29 11:04:38;;;;;;;;;;;2.60;1.00;;;;;;4915596;29;19911;-78
2023/01/29 11:07:16;;;;;;;;;;;2.70;1.00;;;;;;4910398;29;19923;-79
2023/01/29 11:09:55;;;;;;;;;;;2.70;1.00;;;;;;4918300;29;20395;-86
2023/01/29 11:15:29;;;;;;;;;;;3.00;1.00;;;;;;4932266;29;19995;-89
2023/01/29 11:27:25;;;;;;;;;;;3.20;1.00;;;;;;5033065;28;20418;-79
2023/01/29 11:29:56;;;;;;;;;;;3.50;1.00;;;;;;5033591;28;20478;-80
2023/01/29 11:32:26;;;;;;;;;;;3.50;1.00;;;;;;5032648;28;19909;-78
2023/01/29 11:35:15;;;;;;;;;;;3.30;1.00;;;;;;5033489;28;20343;-78
2023/01/29 11:37:45;;;;;;;;;;;3.10;1.00;;;;;;4934083;29;20042;-79
2023/01/29 11:40:23;;;;;;;;;;;3.00;1.00;;;;;;4934460;29;19978;-80
2023/01/29 11:42:49;;;;;;;;;;;3.00;1.00;;;;;;4932403;29;19921;-80
2023/01/29 11:45:30;;;;;;;;;;;2.90;1.00;;;;;;4918232;29;19919;-79
2023/01/29 11:48:03;;;;;;;;;;;2.80;1.00;;;;;;4933989;29;19914;-79
2023/01/29 11:50:29;;;;;;;;;;;3.00;1.00;;;;;;4934142;29;19910;-79
2023/01/29 11:55:58;;;;;;;;;;;2.80;1.00;;;;;;4920984;29;19925;-77
2023/01/29 11:58:29;;;;;;;;;;;2.90;1.00;;;;;;4933330;29;19914;-79
2023/01/29 12:00:57;;;;;;;;;;;2.70;1.00;;;;;;4933801;29;19918;-77
2023/01/29 12:03:29;;;;;;;;;;;2.50;1.00;;;;;;4933426;29;20009;-76
2023/01/29 12:06:04;;;;;;;;;;;2.60;1.00;;;;;;4916691;29;19937;-76
2023/01/29 12:08:36;;;;;;;;;;;2.90;1.00;;;;;;4935304;29;20325;-76
2023/01/29 12:11:23;;;;;;;;;;;3.30;1.00;;;;;;4933417;29;19918;-77
2023/01/29 12:14:20;;;;;;;;;;;3.00;1.00;;;;;;4946220;28;19917;-77
2023/01/29 12:16:49;;;;;;;;;;;3.00;1.00;;;;;;5018553;28;19923;-76
2023/01/29 12:19:32;;;;;;;;;;;2.80;1.00;;;;;;5037118;28;20054;-76
2023/01/29 12:22:18;;;;;;;;;;;2.90;1.00;;;;;;5018718;28;19917;-76
2023/01/29 12:24:48;;;;;;;;;;;2.80;1.00;;;;;;5035564;28;19909;-76
2023/01/29 12:27:27;;;;;;;;;;;2.80;1.00;;;;;;5036622;28;19909;-78
2023/01/29 12:30:06;;;;;;;;;;;2.50;1.00;;;;;;5036901;28;19909;-79
2023/01/29 12:32:38;;;;;;;;;;;2.80;1.00;;;;;;5031353;28;19913;-79
2023/01/29 12:35:26;;;;;;;;;;;2.70;1.00;;;;;;5036598;28;19995;-79
2023/01/29 12:37:59;;;;;;;;;;;2.60;1.00;;;;;;5035501;28;19923;-79
2023/01/29 12:40:56;;;;;;;;;;;2.80;1.00;;;;;;5036795;28;19909;-79
2023/01/29 12:43:44;;;;;;;;;;;2.80;1.00;;;;;;4939772;29;20455;-77
2023/01/29 12:46:23;;;;;;;;;;;3.10;1.00;;;;;;4953965;29;19958;-76
2023/01/29 12:48:49;;;;;;;;;;;3.10;1.00;;;;;;4945730;29;19958;-76
2023/01/29 12:51:18;;;;;;;;;;;3.10;1.00;;;;;;4956950;28;19946;-76
2023/01/29 12:54:08;;;;;;;;;;;2.90;1.00;;;;;;4956074;29;19918;-77
2023/01/29 12:56:41;;;;;;;;;;;2.70;1.00;;;;;;4948093;29;19962;-77
2023/01/29 12:59:26;;;;;;;;;;;2.80;1.00;;;;;;4950976;29;20385;-76
2023/01/29 13:02:15;;;;;;;;;;;2.80;1.00;;;;;;4955125;29;20020;-76
2023/01/29 13:04:52;;;;;;;;;;;2.90;1.00;;;;;;4955558;29;19981;-76
2023/01/29 13:07:31;;;;;;;;;;;2.80;1.00;;;;;;4956722;28;19926;-76
2023/01/29 13:10:04;;;;;;;;;;;2.50;1.00;;;;;;4955021;29;19911;-76
2023/01/29 13:12:39;;;;;;;;;;;2.60;1.00;;;;;;4955502;29;19921;-76
2023/01/29 13:15:23;;;;;;;;;;;2.60;1.00;;;;;;4948173;29;19911;-76
2023/01/29 13:18:08;;;;;;;;;;;2.50;1.00;;;;;;4932281;29;20405;-76
2023/01/29 13:20:39;;;;;;;;;;;2.30;1.00;;;;;;5011052;28;19963;-76
2023/01/29 13:23:28;;;;;;;;;;;2.20;1.00;;;;;;5035453;28;19921;-76
2023/01/29 13:25:54;;;;;;;;;;;2.30;1.00;;;;;;5029180;28;19962;-76
2023/01/29 13:28:38;;;;;;;;;;;2.00;1.00;;;;;;5035638;28;19913;-85
2023/01/29 13:34:32;;;;;;;;;;;1.90;1.00;;;;;;5034814;28;20395;-87
2023/01/29 13:37:08;;;;;;;;;;;2.00;1.00;;;;;;5014957;28;20319;-88
2023/01/29 13:40:02;;;;;;;;;;;2.10;1.00;;;;;;5017660;28;19909;-88
2023/01/29 13:42:53;;;;;;;;;;;2.10;1.00;;;;;;5018647;28;19919;-77
2023/01/29 13:45:21;;;;;;;;;;;2.10;1.00;;;;;;5034810;28;20004;-76
2023/01/29 13:47:51;;;;;;;;;;;2.10;1.00;;;;;;5028518;28;19919;-76
2023/01/29 13:50:37;;;;;;;;;;;2.20;1.00;;;;;;5022842;28;19956;-76
2023/01/29 13:53:04;;;;;;;;;;;2.10;1.00;;;;;;5032598;28;20942;-76
2023/01/29 13:55:31;;;;;;;;;;;2.10;1.00;;;;;;5032134;28;19913;-76
2023/01/29 13:58:00;;;;;;;;;;;2.20;1.00;;;;;;5033793;28;19917;-76
2023/01/29 14:00:33;;;;;;;;;;;2.40;1.00;;;;;;5034993;28;19909;-75
2023/01/29 14:03:10;;;;;;;;;;;2.40;1.00;;;;;;5033657;28;19994;-75
2023/01/29 14:05:42;;;;;;;;;;;2.20;1.00;;;;;;5014552;28;20276;-75
2023/01/29 14:08:20;;;;;;;;;;;2.10;1.00;;;;;;5026252;28;19921;-78
2023/01/29 14:11:06;;;;;;;;;;;2.20;1.00;;;;;;5027201;28;20261;-77
2023/01/29 14:13:34;;;;;;;;;;;2.10;1.00;;;;;;5034824;28;19972;-85
2023/01/29 14:19:27;;;;;;;;;;;2.20;1.00;;;;;;5035172;28;19916;-85
2023/01/29 14:21:57;;;;;;;;;;;2.20;1.00;;;;;;5027360;28;20003;-84
2023/01/29 14:27:27;;;;;;;;;;;2.40;1.00;;;;;;5032411;28;19919;-81
2023/01/29 14:36:14;;;;;;;;;;;2.20;1.00;;;;;;5024696;28;19940;-89
2023/01/29 14:38:51;;;;;;;;;;;2.10;1.00;;;;;;5013366;28;19928;-80
2023/01/29 14:41:29;;;;;;;;;;;2.10;1.00;;;;;;5015261;28;19913;-80
2023/01/29 14:44:23;;;;;;;;;;;2.10;1.00;;;;;;5028666;28;19918;-79
2023/01/29 14:46:51;;;;;;;;;;;2.00;1.00;;;;;;4951901;29;20338;-77
2023/01/29 14:49:37;;;;;;;;;;;2.00;1.00;;;;;;4945258;28;19915;-77
2023/01/29 14:52:03;;;;;;;;;;;2.10;1.00;;;;;;4942544;29;20315;-77
2023/01/29 14:54:37;;;;;;;;;;;2.10;1.00;;;;;;4950218;29;19915;-77
2023/01/29 14:57:16;;;;;;;;;;;2.00;1.00;;;;;;4953682;29;19914;-81
2023/01/29 15:00:04;;;;;;;;;;;1.90;1.00;;;;;;4956188;28;19938;-82
2023/01/29 15:03:02;;;;;;;;;;;1.80;1.00;;;;;;4954031;29;19911;-82
2023/01/29 15:05:40;;;;;;;;;;;1.80;1.00;;;;;;4951230;29;19940;-79
2023/01/29 15:08:07;;;;;;;;;;;1.90;1.00;;;;;;4931319;29;19914;-79
2023/01/29 15:10:36;;;;;;;;;;;2.00;1.00;;;;;;4952870;29;19957;-79
2023/01/29 15:13:26;;;;;;;;;;;2.00;1.00;;;;;;4936713;29;19956;-80
2023/01/29 15:15:58;;;;;;;;;;;2.00;1.00;;;;;;4951769;29;19918;-80
2023/01/29 15:18:35;;;;;;;;;;;1.90;1.00;;;;;;4953420;29;19911;-78
2023/01/29 15:21:03;;;;;;;;;;;1.90;1.00;;;;;;4953093;29;20333;-78
2023/01/29 15:23:30;;;;;;;;;;;1.90;1.00;;;;;;4989284;28;19913;-78
2023/01/29 15:26:20;;;;;;;;;;;1.90;1.00;;;;;;5031806;28;19909;-79
2023/01/29 15:28:53;;;;;;;;;;;2.00;1.00;;;;;;5027952;28;19944;-80
2023/01/29 15:31:27;;;;;;;;;;;1.80;1.00;;;;;;5033238;28;19980;-80
2023/01/29 15:34:21;;;;;;;;;;;1.80;1.00;;;;;;5020157;28;19915;-81
2023/01/29 15:37:14;;;;;;;;;;;1.80;1.00;;;;;;5032772;28;19971;-79
2023/01/29 15:39:57;;;;;;;;;;;1.80;1.00;;;;;;5029194;28;19917;-79
2023/01/29 15:42:53;;;;;;;;;;;1.70;1.00;;;;;;5031498;28;19959;-80
2023/01/29 15:45:26;;;;;;;;;;;1.70;1.00;;;;;;4951827;29;19922;-78
2023/01/29 15:48:29;;;;;;;;;;;1.70;1.00;;;;;;4937389;29;19910;-79
2023/01/29 15:51:06;;;;;;;;;;;1.70;1.00;;;;;;4843885;29;20347;-80
2023/01/29 15:53:51;;;;;;;;;;;1.50;1.00;;;;;;4829775;29;19956;-80
2023/01/29 15:56:50;;;;;;;;;;;1.40;1.00;;;;;;4837626;29;19921;-80
2023/01/29 15:59:23;;;;;;;;;;;1.30;1.00;;;;;;4844674;29;19916;-81
2023/01/29 16:02:03;;;;;;;;;;;1.30;1.00;;;;;;4844827;29;20899;-78
2023/01/29 16:04:50;;;;;;;;;;;1.30;1.00;;;;;;4854464;29;20319;-79
2023/01/29 16:07:27;;;;;;;;;;;1.30;1.00;;;;;;4851221;29;19912;-79
2023/01/29 16:10:03;;;;;;;;;;;1.20;1.00;;;;;;4847226;29;19927;-78
2023/01/29 16:12:33;;;;;;;;;;;1.10;1.00;;;;;;4843940;29;19917;-78
2023/01/29 16:15:03;;;;;;;;;;;1.10;1.00;;;;;;4836502;29;19967;-81
2023/01/29 16:17:34;;;;;;;;;;;1.00;1.00;;;;;;4862372;29;19916;-81
2023/01/29 16:20:04;;;;;;;;;;;0.90;1.00;;;;;;4850076;29;19967;-81
2023/01/29 16:23:02;;;;;;;;;;;0.90;1.00;;;;;;4894757;29;19915;-81
2023/01/29 16:25:46;;;;;;;;;;;0.90;1.00;;;;;;4985306;28;19913;-82
2023/01/29 16:28:12;;;;;;;;;;;0.80;1.00;;;;;;5027718;28;20379;-82
2023/01/29 16:31:02;;;;;;;;;;;0.60;1.00;;;;;;5012676;28;20008;-79
2023/01/29 16:33:34;;;;;;;;;;;0.60;1.00;;;;;;5027394;28;19913;-79
2023/01/29 16:36:10;;;;;;;;;;;0.60;1.00;;;;;;5032124;28;20639;-79
2023/01/29 16:38:43;;;;;;;;;;;0.60;1.00;;;;;;5024345;28;19920;-79
2023/01/29 16:41:21;;;;;;;;;;;0.40;1.00;;;;;;5028525;28;19913;-79
2023/01/29 16:43:52;;;;;;;;;;;0.40;1.00;;;;;;5034310;28;20056;-81
2023/01/29 16:49:38;;;;;;;;;;;0.20;1.00;;;;;;5023734;28;19920;-82
2023/01/29 16:52:16;;;;;;;;;;;0.20;1.00;;;;;;5013369;28;19915;-82
2023/01/29 16:54:45;;;;;;;;;;;0.00;1.00;;;;;;5025942;28;20346;-80
2023/01/29 16:57:14;;;;;;;;;;;0.00;1.00;;;;;;5011400;28;19932;-80
2023/01/29 16:59:45;;;;;;;;;;;-0.10;1.00;;;;;;5035310;28;19920;-78
2023/01/29 17:02:29;;;;;;;;;;;-0.10;1.00;;;;;;5017068;28;20008;-78
2023/01/29 17:05:00;;;;;;;;;;;-0.30;1.00;;;;;;5028914;28;19940;-78
2023/01/29 17:07:45;;;;;;;;;;;-0.30;1.00;;;;;;5023907;28;19913;-79
2023/01/29 17:10:16;;;;;;;;;;;-0.30;1.00;;;;;;5034333;28;19917;-79
2023/01/29 17:12:52;;;;;;;;;;;-0.40;1.00;;;;;;5035588;28;19942;-79
2023/01/29 17:15:41;;;;;;;;;;;-0.50;1.00;;;;;;5034940;28;19913;-80
2023/01/29 17:18:26;;;;;;;;;;;-0.60;1.00;;;;;;5026536;28;19916;-80
2023/01/29 17:20:57;;;;;;;;;;;-0.60;1.00;;;;;;5025729;28;19975;-81
2023/01/29 17:23:27;;;;;;;;;;;-0.70;1.00;;;;;;5034956;28;19913;-80
2023/01/29 17:25:58;;;;;;;;;;;-0.70;1.00;;;;;;5035156;28;20360;-78
2023/01/29 17:28:33;;;;;;;;;;;-0.70;1.00;;;;;;5023873;28;19913;-78
2023/01/29 17:30:58;;;;;;;;;;;-0.80;1.00;;;;;;5011310;28;19916;-79
2023/01/29 17:33:45;;;;;;;;;;;-1.00;1.00;;;;;;5015633;28;19913;-79
2023/01/29 17:36:16;;;;;;;;;;;-1.00;1.00;;;;;;5034287;28;19921;-78
2023/01/29 17:38:45;;;;;;;;;;;-1.00;1.00;;;;;;5030484;28;19918;-78
2023/01/29 17:41:27;;;;;;;;;;;-1.00;1.00;;;;;;5005130;28;20370;-78
2023/01/29 17:44:03;;;;;;;;;;;-1.00;1.00;;;;;;5030325;28;20826;-78
2023/01/29 17:46:28;;;;;;;;;;;-1.00;1.00;;;;;;5008252;28;20261;-78
2023/01/29 17:48:57;;;;;;;;;;;-1.10;1.00;;;;;;5033447;28;19920;-77
2023/01/29 17:51:22;;;;;;;;;;;-1.10;1.00;;;;;;5024597;28;19909;-77
2023/01/29 17:53:51;;;;;;;;;;;-1.10;1.00;;;;;;5016701;28;20378;-77
2023/01/29 17:56:29;;;;;;;;;;;-1.10;1.00;;;;;;5034635;28;19917;-79
2023/01/29 17:58:57;;;;;;;;;;;-1.20;1.00;;;;;;5034398;28;19948;-77
2023/01/29 18:01:27;;;;;;;;;;;-1.20;1.00;;;;;;5034858;28;20276;-79
2023/01/29 18:04:03;;;;;;;;;;;-1.20;1.00;;;;;;5034295;28;19921;-80
2023/01/29 18:06:33;;;;;;;;;;;-1.30;1.00;;;;;;5034862;28;19915;-79
2023/01/29 18:08:59;;;;;;;;;;;-1.30;1.00;;;;;;5034639;28;19909;-79
2023/01/29 18:11:34;;;;;;;;;;;-1.30;1.00;;;;;;5034176;28;19913;-79
2023/01/29 18:14:03;;;;;;;;;;;-1.30;1.00;;;;;;5033749;28;19917;-77
2023/01/29 18:16:36;;;;;;;;;;;-1.30;1.00;;;;;;5034906;28;19913;-77
2023/01/29 18:19:03;;;;;;;;;;;-1.30;1.00;;;;;;5013948;28;20002;-77
2023/01/29 18:21:33;;;;;;;;;;;-1.40;1.00;;;;;;5032602;28;20368;-77
2023/01/29 18:24:03;;;;;;;;;;;-1.40;1.00;;;;;;5034162;28;19921;-77
2023/01/29 18:26:28;;;;;;;;;;;-1.40;1.00;;;;;;5034498;28;19909;-74
2023/01/29 18:28:54;;;;;;;;;;;-1.50;1.00;;;;;;5034770;28;19959;-75
2023/01/29 18:31:20;;;;;;;;;;;-1.40;1.00;;;;;;5033291;28;19917;-76
2023/01/29 18:33:57;;;;;;;;;;;-1.40;1.00;;;;;;5021863;28;20285;-75
2023/01/29 18:36:27;;;;;;;;;;;-1.50;1.00;;;;;;5034202;28;20333;-75
2023/01/29 18:38:52;;;;;;;;;;;-1.50;1.00;;;;;;5011892;28;20328;-75
2023/01/29 18:41:21;;;;;;;;;;;-1.50;1.00;;;;;;5033904;28;19957;-75
2023/01/29 18:43:46;;;;;;;;;;;-1.60;1.00;;;;;;5034125;28;19914;-75
2023/01/29 18:46:15;;;;;;;;;;;-1.60;1.00;;;;;;5016058;28;19920;-76
2023/01/29 18:48:41;;;;;;;;;;;-1.60;1.00;;;;;;5030426;28;20110;-87
2023/01/29 18:51:06;;;;;;;;;;;-1.70;1.00;;;;;;5013846;28;19997;-87
2023/01/29 18:53:33;;;;;;;;;;;-1.70;1.00;;;;;;5028511;28;19948;-87
2023/01/29 18:56:15;;;;;;;;;;;-1.70;1.00;;;;;;5034726;28;19952;-86
2023/01/29 18:58:57;;;;;;;;;;;-1.60;1.00;;;;;;5034536;28;19909;-86
2023/01/29 19:01:27;;;;;;;;;;;-1.70;1.00;;;;;;5034297;28;19927;-86
2023/01/29 19:03:52;;;;;;;;;;;-1.70;1.00;;;;;;5028852;28;20390;-75
2023/01/29 19:06:18;;;;;;;;;;;-1.70;1.00;;;;;;5029160;28;19917;-75
2023/01/29 19:08:51;;;;;;;;;;;-1.70;1.00;;;;;;5032295;28;19909;-75